createdAt,value
2018-07-26T00:03:02.455Z,16.40
2018-07-26T00:07:07.033Z,16.30
2018-07-26T00:11:11.348Z,16.40
2018-07-26T00:15:15.609Z,16.40
2018-07-26T00:19:20.073Z,16.40
2018-07-26T00:23:24.513Z,16.30
2018-07-26T00:27:28.769Z,16.20
2018-07-26T00:31:33.140Z,16.10
2018-07-26T00:35:37.385Z,16.00
2018-07-26T00:39:41.657Z,16.10
2018-07-26T00:43:46.058Z,15.90
2018-07-26T00:47:50.326Z,15.80
2018-07-26T00:51:54.603Z,15.70
2018-07-26T00:55:58.969Z,15.80
2018-07-26T01:00:03.282Z,15.70
2018-07-26T01:04:07.586Z,15.60
2018-07-26T01:08:12.052Z,15.50
2018-07-26T01:12:16.326Z,15.40
2018-07-26T01:16:20.620Z,15.50
2018-07-26T01:20:24.908Z,15.50
2018-07-26T01:24:29.158Z,15.40
2018-07-26T01:28:33.388Z,15.30
2018-07-26T01:32:37.730Z,15.30
2018-07-26T01:36:42.016Z,15.20
2018-07-26T01:40:46.350Z,15.20
2018-07-26T01:44:50.715Z,15.20
2018-07-26T01:48:54.951Z,15.30
2018-07-26T01:52:59.173Z,15.20
2018-07-26T01:57:03.470Z,15.10
2018-07-26T02:01:09.216Z,15.10
2018-07-26T02:05:13.655Z,15.10
2018-07-26T02:09:17.894Z,15.10
2018-07-26T02:13:22.142Z,15.10
2018-07-26T02:17:26.488Z,14.90
2018-07-26T02:21:30.802Z,15.00
2018-07-26T02:25:35.035Z,14.90
2018-07-26T02:29:39.309Z,14.90
2018-07-26T02:33:43.542Z,14.90
2018-07-26T02:37:47.810Z,14.80
2018-07-26T02:41:52.169Z,14.90
2018-07-26T02:45:56.454Z,14.80
2018-07-26T02:50:00.801Z,14.70
2018-07-26T02:54:05.084Z,14.70
2018-07-26T02:58:09.563Z,14.80
2018-07-26T03:02:13.933Z,14.70
2018-07-26T03:06:18.158Z,14.60
2018-07-26T03:10:22.562Z,14.60
2018-07-26T03:14:37.984Z,14.50
2018-07-26T03:18:42.274Z,14.40
2018-07-26T03:22:46.489Z,14.40
2018-07-26T03:26:50.831Z,14.50
2018-07-26T03:30:55.096Z,14.40
2018-07-26T03:34:59.472Z,14.40
2018-07-26T03:39:04.886Z,14.40
2018-07-26T03:43:09.254Z,14.30
2018-07-26T03:47:13.776Z,14.40
2018-07-26T03:51:18.228Z,14.50
2018-07-26T03:55:22.470Z,14.40
2018-07-26T03:59:26.858Z,14.40
2018-07-26T04:03:31.208Z,14.40
2018-07-26T04:07:35.589Z,14.40
2018-07-26T04:11:40.188Z,14.60
2018-07-26T04:15:44.410Z,14.70
2018-07-26T04:19:48.779Z,14.90
2018-07-26T04:23:53.127Z,15.00
2018-07-26T04:27:58.508Z,15.10
2018-07-26T04:32:02.842Z,15.20
2018-07-26T04:36:07.118Z,15.30
2018-07-26T04:40:11.362Z,15.30
2018-07-26T04:44:15.744Z,15.40
2018-07-26T04:48:20.182Z,15.60
2018-07-26T04:52:24.398Z,15.70
2018-07-26T04:56:28.753Z,15.80
2018-07-26T05:00:33.128Z,15.90
2018-07-26T05:04:37.594Z,16.00
2018-07-26T05:08:41.972Z,16.30
2018-07-26T05:12:46.564Z,16.60
2018-07-26T05:16:51.026Z,17.00
2018-07-26T05:20:55.468Z,17.40
2018-07-26T05:25:00.043Z,17.50
2018-07-26T05:29:04.291Z,17.60
2018-07-26T05:33:08.732Z,17.70
2018-07-26T05:37:13.062Z,17.70
2018-07-26T05:45:45.724Z,18.10
2018-07-26T05:49:49.967Z,18.20
2018-07-26T05:53:54.198Z,18.30
2018-07-26T05:57:58.402Z,18.40
2018-07-26T06:02:02.652Z,18.80
2018-07-26T06:06:06.913Z,18.80
2018-07-26T06:10:11.306Z,18.80
2018-07-26T06:14:15.639Z,19.20
2018-07-26T06:18:19.887Z,19.60
2018-07-26T06:22:24.397Z,19.90
2018-07-26T06:26:28.715Z,20.20
2018-07-26T06:30:32.972Z,20.30
2018-07-26T06:34:37.394Z,20.40
2018-07-26T06:38:41.669Z,20.50
2018-07-26T06:42:45.972Z,20.80
2018-07-26T06:46:50.225Z,21.00
2018-07-26T06:50:54.503Z,21.20
2018-07-26T06:54:58.782Z,21.40
2018-07-26T06:59:03.155Z,21.50
2018-07-26T07:03:07.457Z,21.60
2018-07-26T07:07:11.772Z,21.70
2018-07-26T07:11:16.058Z,21.70
2018-07-26T07:15:20.420Z,21.70
2018-07-26T07:19:25.043Z,21.90
2018-07-26T07:23:29.260Z,21.90
2018-07-26T07:27:33.574Z,22.10
2018-07-26T07:31:38.164Z,22.30
2018-07-26T07:35:42.421Z,22.80
2018-07-26T07:39:46.661Z,23.10
2018-07-26T07:43:51.098Z,23.60
2018-07-26T07:47:55.388Z,24.20
2018-07-26T07:51:59.620Z,24.80
2018-07-26T07:56:04.094Z,25.10
2018-07-26T08:00:09.201Z,25.30
2018-07-26T08:04:13.541Z,25.60
2018-07-26T08:08:17.888Z,25.70
2018-07-26T08:12:22.156Z,25.90
2018-07-26T08:16:26.444Z,25.60
2018-07-26T08:20:30.845Z,25.40
2018-07-26T08:24:35.143Z,25.40
2018-07-26T08:28:39.437Z,25.20
2018-07-26T08:32:43.684Z,25.50
2018-07-26T08:36:48.000Z,26.00
2018-07-26T08:40:52.510Z,26.50
2018-07-26T08:44:56.777Z,26.80
2018-07-26T08:49:01.011Z,26.00
2018-07-26T08:53:05.365Z,26.10
2018-07-26T08:57:09.700Z,26.50
2018-07-26T09:01:13.946Z,26.40
2018-07-26T09:05:18.426Z,26.70
2018-07-26T09:09:22.834Z,27.20
2018-07-26T09:13:27.494Z,27.20
2018-07-26T09:17:31.681Z,28.10
2018-07-26T09:21:35.941Z,28.90
2018-07-26T09:25:40.515Z,28.50
2018-07-26T09:29:44.789Z,28.50
2018-07-26T09:33:49.104Z,29.50
2018-07-26T09:37:53.396Z,29.20
2018-07-26T09:41:57.656Z,29.00
2018-07-26T09:46:02.013Z,30.20
2018-07-26T09:50:06.489Z,31.10
2018-07-26T09:54:10.716Z,30.40
2018-07-26T09:58:15.014Z,30.20
2018-07-26T10:02:19.260Z,31.00
2018-07-26T10:06:23.615Z,30.80
2018-07-26T10:10:27.832Z,31.40
2018-07-26T10:14:32.114Z,31.90
2018-07-26T10:18:36.499Z,31.70
2018-07-26T10:22:40.750Z,31.10
2018-07-26T10:26:45.108Z,31.10
2018-07-26T10:30:49.368Z,31.10
2018-07-26T10:34:53.548Z,31.20
2018-07-26T10:38:57.836Z,30.70
2018-07-26T10:43:02.068Z,30.40
2018-07-26T10:47:06.399Z,29.40
2018-07-26T10:51:10.622Z,28.30
2018-07-26T10:55:14.856Z,28.10
2018-07-26T10:59:19.273Z,28.90
2018-07-26T11:03:24.028Z,31.00
2018-07-26T11:07:28.460Z,31.40
2018-07-26T11:11:32.721Z,29.00
2018-07-26T11:15:37.369Z,27.00
2018-07-26T11:19:41.706Z,25.70
2018-07-26T11:23:45.928Z,24.70
2018-07-26T11:27:50.169Z,23.40
2018-07-26T11:31:54.552Z,23.30
2018-07-26T11:35:58.927Z,24.60
2018-07-26T11:40:03.586Z,26.10
2018-07-26T11:44:08.243Z,26.70
2018-07-26T11:48:12.464Z,28.50
2018-07-26T11:52:16.841Z,28.90
2018-07-26T11:56:21.117Z,29.00
2018-07-26T12:00:25.469Z,28.80
2018-07-26T12:04:29.673Z,31.50
2018-07-26T12:08:33.905Z,31.80
2018-07-26T12:12:38.304Z,33.70
2018-07-26T12:16:42.529Z,33.80
2018-07-26T12:20:46.826Z,32.00
2018-07-26T12:24:51.600Z,30.00
2018-07-26T12:28:55.819Z,28.30
2018-07-26T12:33:00.153Z,26.50
2018-07-26T12:37:04.480Z,25.00
2018-07-26T12:41:08.823Z,23.40
2018-07-26T12:45:13.075Z,24.60
2018-07-26T12:57:19.239Z,31.20
2018-07-26T13:01:23.540Z,30.50
2018-07-26T13:05:27.743Z,31.10
2018-07-26T13:09:31.968Z,30.30
2018-07-26T13:13:36.348Z,30.00
2018-07-26T13:17:40.536Z,31.60
2018-07-26T13:21:44.778Z,30.70
2018-07-26T13:25:49.456Z,28.20
2018-07-26T13:29:53.640Z,28.60
2018-07-26T13:33:57.955Z,30.00
2018-07-26T13:38:04.513Z,30.30
2018-07-26T13:42:13.958Z,31.70
2018-07-26T13:46:22.375Z,29.80
2018-07-26T13:50:31.134Z,27.20
2018-07-26T13:54:41.575Z,24.80
2018-07-26T13:58:46.028Z,23.10
2018-07-26T14:02:50.251Z,22.10
2018-07-26T14:06:54.568Z,22.10
2018-07-26T14:10:58.816Z,21.90
2018-07-26T14:15:03.425Z,21.90
2018-07-26T14:19:08.377Z,21.90
2018-07-26T14:23:17.764Z,21.90
2018-07-26T14:27:22.005Z,21.90
2018-07-26T14:31:31.180Z,21.80
2018-07-26T14:35:41.051Z,21.90
2018-07-26T14:39:45.695Z,22.20
2018-07-26T14:43:51.015Z,22.40
2018-07-26T14:47:55.312Z,22.30
2018-07-26T14:52:00.257Z,22.10
2018-07-26T14:56:07.192Z,22.30
2018-07-26T15:00:13.151Z,22.60
2018-07-26T15:04:17.658Z,25.60
2018-07-26T15:08:22.454Z,27.50
2018-07-26T15:12:26.927Z,28.40
2018-07-26T15:16:31.134Z,28.90
2018-07-26T15:20:35.397Z,28.80
2018-07-26T15:24:43.760Z,28.80
2018-07-26T15:28:47.964Z,30.00
2018-07-26T15:32:52.952Z,29.40
2018-07-26T15:36:57.315Z,28.80
2018-07-26T15:41:01.537Z,28.90
2018-07-26T15:45:06.385Z,27.00
2018-07-26T15:49:11.000Z,25.90
2018-07-26T15:53:15.296Z,26.50
2018-07-26T15:57:19.712Z,28.10
2018-07-26T16:01:24.092Z,27.20
2018-07-26T16:05:28.303Z,26.80
2018-07-26T16:09:32.565Z,26.10
2018-07-26T16:13:36.903Z,25.50
2018-07-26T16:17:41.332Z,24.80
2018-07-26T16:21:45.671Z,24.10
2018-07-26T16:25:49.945Z,23.60
2018-07-26T16:29:54.169Z,23.40
2018-07-26T16:33:58.691Z,23.10
2018-07-26T16:38:03.488Z,22.90
2018-07-26T16:42:08.565Z,22.60
2018-07-26T16:46:13.104Z,22.70
2018-07-26T16:50:17.346Z,22.50
2018-07-26T16:54:22.312Z,22.40
2018-07-26T16:58:26.688Z,22.30
2018-07-26T17:02:30.998Z,22.20
2018-07-26T17:06:35.481Z,22.10
2018-07-26T17:10:41.399Z,22.00
2018-07-26T17:14:45.924Z,21.80
2018-07-26T17:18:50.806Z,21.50
2018-07-26T17:22:55.023Z,21.40
2018-07-26T17:26:59.768Z,21.40
2018-07-26T17:31:04.443Z,21.50
2018-07-26T17:35:09.220Z,21.50
2018-07-26T17:39:13.780Z,21.40
2018-07-26T17:43:18.530Z,21.40
2018-07-26T17:47:23.291Z,21.40
2018-07-26T17:51:28.074Z,21.40
2018-07-26T17:55:32.517Z,21.50
2018-07-26T17:59:37.345Z,21.40
2018-07-26T18:03:41.876Z,21.40
2018-07-26T18:07:46.244Z,21.30
2018-07-26T18:11:51.040Z,21.30
2018-07-26T18:15:55.488Z,21.30
2018-07-26T18:19:59.798Z,21.30
2018-07-26T18:24:04.140Z,21.50
2018-07-26T18:28:08.684Z,21.30
2018-07-26T18:32:13.037Z,21.30
2018-07-26T18:36:17.987Z,21.10
2018-07-26T18:40:22.742Z,21.10
2018-07-26T18:44:27.163Z,20.80
2018-07-26T18:48:31.718Z,20.70
2018-07-26T18:52:36.048Z,20.60
2018-07-26T18:56:40.545Z,20.70
2018-07-26T19:00:44.929Z,20.50
2018-07-26T19:04:49.156Z,20.40
2018-07-26T19:08:53.464Z,20.30
2018-07-26T19:12:58.252Z,20.20
2018-07-26T19:17:02.808Z,19.90
2018-07-26T19:21:07.508Z,19.90
2018-07-26T19:25:12.510Z,19.70
2018-07-26T19:29:17.175Z,19.60
2018-07-26T19:33:21.571Z,19.40
2018-07-26T19:37:25.896Z,19.50
2018-07-26T19:41:30.194Z,19.30
2018-07-26T19:45:34.633Z,19.20
2018-07-26T19:49:39.412Z,19.20
2018-07-26T19:53:44.916Z,19.10
2018-07-26T19:57:49.304Z,19.00
2018-07-26T20:01:53.821Z,18.90
2018-07-26T20:05:58.383Z,18.90
2018-07-26T20:10:02.695Z,18.80
2018-07-26T20:14:07.783Z,18.80
2018-07-26T20:18:12.718Z,18.80
2018-07-26T20:22:21.217Z,18.80
2018-07-26T20:26:32.484Z,18.70
2018-07-26T20:30:42.021Z,18.70
2018-07-26T20:34:47.235Z,18.60
2018-07-26T20:38:52.256Z,18.60
2018-07-26T20:42:57.292Z,18.40
2018-07-26T20:47:01.564Z,18.40
2018-07-26T20:51:06.091Z,18.20
2018-07-26T20:55:10.327Z,18.10
2018-07-26T20:59:15.201Z,18.00
2018-07-26T21:03:19.952Z,17.90
2018-07-26T21:07:24.292Z,17.80
2018-07-26T21:11:28.631Z,17.80
2018-07-26T21:15:32.978Z,17.80
2018-07-26T21:19:37.644Z,17.70
2018-07-26T21:23:42.165Z,17.50
2018-07-26T21:27:46.795Z,17.40
2018-07-26T21:31:51.115Z,17.30
2018-07-26T21:35:56.153Z,17.20
2018-07-26T21:40:00.449Z,17.10
2018-07-26T21:44:05.054Z,17.00
2018-07-26T21:48:09.265Z,16.90
2018-07-26T21:52:13.512Z,16.80
2018-07-26T21:56:18.314Z,16.80
2018-07-26T22:00:22.635Z,16.80
2018-07-26T22:04:26.908Z,16.70
2018-07-26T22:08:31.281Z,16.70
2018-07-26T22:12:35.691Z,16.70
2018-07-26T22:16:40.124Z,16.70
2018-07-26T22:20:44.722Z,16.70
2018-07-26T22:24:48.975Z,16.70
2018-07-26T22:28:53.477Z,16.80
2018-07-26T22:32:58.272Z,16.80
2018-07-26T22:37:02.496Z,16.80
2018-07-26T22:41:07.520Z,16.70
2018-07-26T22:45:11.835Z,16.60
2018-07-26T22:49:16.176Z,16.50
2018-07-26T22:53:20.709Z,16.40
2018-07-26T22:57:25.063Z,16.40
2018-07-26T23:01:29.624Z,16.30
2018-07-26T23:05:33.823Z,16.20
2018-07-26T23:09:38.138Z,16.20
2018-07-26T23:13:42.698Z,16.30
2018-07-26T23:17:47.232Z,16.30
2018-07-26T23:21:51.577Z,16.40
2018-07-26T23:25:55.902Z,16.50
2018-07-26T23:30:00.374Z,16.60
2018-07-26T23:34:05.045Z,16.70
2018-07-26T23:38:09.669Z,16.70
2018-07-26T23:42:14.542Z,16.60
2018-07-26T23:46:19.396Z,16.70
2018-07-26T23:50:24.600Z,16.80
2018-07-26T23:54:28.956Z,16.70
2018-07-26T23:58:33.283Z,16.60
